createdAt,value
2019-04-22T00:01:30.795Z,12.60
2019-04-22T00:04:03.877Z,12.60
2019-04-22T00:06:58.319Z,12.70
2019-04-22T00:09:32.400Z,12.70
2019-04-22T00:12:11.239Z,12.60
2019-04-22T00:14:30.792Z,12.60
2019-04-22T00:17:10.019Z,12.50
2019-04-22T00:19:40.661Z,12.40
2019-04-22T00:22:20.179Z,12.40
2019-04-22T00:24:36.959Z,12.30
2019-04-22T00:27:20.175Z,12.30
2019-04-22T00:32:19.508Z,12.20
2019-04-22T00:34:54.781Z,12.20
2019-04-22T00:37:30.101Z,12.10
2019-04-22T00:39:57.534Z,12.10
2019-04-22T00:42:36.351Z,12.00
2019-04-22T00:45:08.136Z,11.90
2019-04-22T00:50:23.766Z,11.80
2019-04-22T00:52:38.886Z,11.80
2019-04-22T00:55:23.051Z,11.70
2019-04-22T00:57:47.458Z,11.80
2019-04-22T01:00:18.169Z,11.80
2019-04-22T01:02:59.324Z,11.60
2019-04-22T01:05:30.162Z,11.60
2019-04-22T01:08:01.186Z,11.50
2019-04-22T01:10:30.624Z,11.50
2019-04-22T01:12:56.998Z,11.50
2019-04-22T01:15:36.823Z,11.40
2019-04-22T01:18:02.193Z,11.40
2019-04-22T01:21:00.511Z,11.40
2019-04-22T01:23:05.524Z,11.30
2019-04-22T01:25:37.474Z,11.30
2019-04-22T01:28:02.401Z,11.30
2019-04-22T01:30:31.160Z,11.20
2019-04-22T01:33:02.733Z,11.20
2019-04-22T01:35:35.843Z,11.20
2019-04-22T01:38:13.210Z,11.20
2019-04-22T01:41:04.503Z,11.20
2019-04-22T01:43:33.613Z,11.10
2019-04-22T01:46:01.763Z,11.10
2019-04-22T01:48:32.976Z,11.00
2019-04-22T01:51:01.400Z,11.00
2019-04-22T01:53:36.062Z,10.90
2019-04-22T01:56:06.122Z,10.90
2019-04-22T01:58:36.205Z,10.80
2019-04-22T02:01:13.685Z,10.90
2019-04-22T02:03:46.983Z,10.90
2019-04-22T02:06:13.692Z,10.90
2019-04-22T02:08:55.243Z,10.80
2019-04-22T02:11:27.858Z,10.80
2019-04-22T02:13:56.640Z,10.80
2019-04-22T02:16:27.842Z,10.70
2019-04-22T02:19:01.207Z,10.70
2019-04-22T02:21:34.265Z,10.60
2019-04-22T02:24:07.005Z,10.60
2019-04-22T02:26:40.665Z,10.60
2019-04-22T02:29:06.469Z,10.50
2019-04-22T02:31:44.149Z,10.50
2019-04-22T02:34:37.603Z,10.50
2019-04-22T02:37:04.993Z,10.40
2019-04-22T02:39:19.955Z,10.20
2019-04-22T02:41:49.795Z,10.20
2019-04-22T02:49:31.179Z,10.00
2019-04-22T02:52:06.391Z,10.10
2019-04-22T02:57:19.362Z,10.10
2019-04-22T02:59:44.401Z,10.10
2019-04-22T03:02:15.064Z,10.10
2019-04-22T03:04:47.282Z,10.10
2019-04-22T03:07:08.810Z,10.10
2019-04-22T03:09:47.759Z,10.00
2019-04-22T03:12:29.129Z,10.00
2019-04-22T03:14:48.555Z,9.90
2019-04-22T03:17:25.145Z,9.90
2019-04-22T03:22:20.976Z,9.70
2019-04-22T03:27:29.716Z,9.70
2019-04-22T03:37:53.207Z,9.60
2019-04-22T03:42:55.938Z,9.50
2019-04-22T03:53:06.171Z,9.60
2019-04-22T03:55:33.151Z,9.60
2019-04-22T03:57:57.139Z,9.60
2019-04-22T04:00:50.136Z,9.50
2019-04-22T04:03:06.882Z,9.50
2019-04-22T04:05:45.484Z,9.40
2019-04-22T04:08:14.708Z,9.30
2019-04-22T04:15:44.057Z,9.20
2019-04-22T04:18:30.850Z,9.20
2019-04-22T04:23:31.007Z,9.20
2019-04-22T04:25:54.309Z,9.20
2019-04-22T04:31:06.913Z,9.30
2019-04-22T04:33:38.786Z,9.30
2019-04-22T04:36:02.627Z,9.30
2019-04-22T04:38:46.260Z,9.30
2019-04-22T04:43:48.104Z,9.50
2019-04-22T04:47:39.235Z,9.60
2019-04-22T04:48:51.592Z,9.70
2019-04-22T04:51:24.652Z,9.60
2019-04-22T04:53:58.320Z,9.60
2019-04-22T04:56:33.968Z,9.60
2019-04-22T05:06:39.987Z,9.60
2019-04-22T05:11:46.131Z,9.60
2019-04-22T05:16:42.905Z,9.70
2019-04-22T05:19:15.721Z,9.80
2019-04-22T05:21:40.557Z,9.80
2019-04-22T05:24:19.418Z,9.80
2019-04-22T05:29:16.993Z,9.90
2019-04-22T05:31:55.363Z,9.80
2019-04-22T05:39:17.154Z,9.90
2019-04-22T05:41:55.052Z,10.00
2019-04-22T05:44:22.772Z,10.00
2019-04-22T05:46:53.285Z,10.10
2019-04-22T05:49:29.950Z,10.20
2019-04-22T05:52:02.775Z,10.30
2019-04-22T05:54:32.690Z,10.40
2019-04-22T05:57:10.975Z,10.50
2019-04-22T05:59:44.598Z,10.70
2019-04-22T06:02:21.093Z,11.00
2019-04-22T06:04:48.426Z,11.30
2019-04-22T06:07:14.983Z,11.60
2019-04-22T06:09:53.278Z,11.70
2019-04-22T06:12:17.392Z,11.90
2019-04-22T06:14:53.745Z,12.00
2019-04-22T06:17:31.725Z,12.20
2019-04-22T06:20:07.597Z,12.40
2019-04-22T06:22:50.479Z,12.50
2019-04-22T06:25:12.626Z,12.60
2019-04-22T06:27:41.299Z,12.70
2019-04-22T06:30:11.165Z,12.80
2019-04-22T06:32:46.877Z,12.90
2019-04-22T06:35:23.278Z,13.10
2019-04-22T06:37:55.022Z,13.20
2019-04-22T06:40:22.045Z,13.30
2019-04-22T06:42:53.391Z,13.40
2019-04-22T06:45:24.573Z,13.60
2019-04-22T06:48:12.799Z,13.70
2019-04-22T06:50:32.210Z,13.80
2019-04-22T06:53:06.460Z,13.90
2019-04-22T06:58:13.780Z,14.10
2019-04-22T07:00:42.853Z,14.30
2019-04-22T07:05:49.472Z,14.80
2019-04-22T07:08:39.387Z,15.20
2019-04-22T07:13:23.305Z,16.10
2019-04-22T07:16:00.326Z,16.40
2019-04-22T07:18:32.698Z,16.60
2019-04-22T07:26:05.292Z,17.40
2019-04-22T07:28:29.467Z,17.60
2019-04-22T07:31:10.276Z,17.80
2019-04-22T07:36:29.654Z,18.20
2019-04-22T07:38:36.156Z,18.20
2019-04-22T07:41:16.959Z,18.50
2019-04-22T07:46:18.295Z,18.70
2019-04-22T07:48:53.912Z,18.80
2019-04-22T07:51:30.147Z,18.80
2019-04-22T07:53:56.101Z,18.90
2019-04-22T07:56:33.176Z,19.10
2019-04-22T07:59:04.097Z,19.20
2019-04-22T08:01:39.333Z,19.40
2019-04-22T08:04:21.336Z,19.60
2019-04-22T08:06:47.819Z,19.80
2019-04-22T08:09:19.852Z,19.80
2019-04-22T08:11:51.602Z,20.10
2019-04-22T08:14:24.533Z,20.10
2019-04-22T08:16:51.340Z,20.20
2019-04-22T08:19:28.705Z,20.50
2019-04-22T08:21:57.086Z,20.80
2019-04-22T08:24:28.587Z,21.10
2019-04-22T08:27:00.909Z,21.30
2019-04-22T08:29:37.674Z,21.40
2019-04-22T08:31:59.497Z,21.80
2019-04-22T08:34:47.547Z,21.90
2019-04-22T08:37:35.671Z,22.10
2019-04-22T08:39:39.154Z,22.00
2019-04-22T08:42:17.945Z,22.00
2019-04-22T08:45:01.152Z,22.30
2019-04-22T08:47:27.764Z,22.30
2019-04-22T08:49:56.845Z,22.50
2019-04-22T08:52:23.539Z,22.30
2019-04-22T08:57:31.617Z,22.40
2019-04-22T08:59:57.507Z,22.50
2019-04-22T09:02:32.434Z,22.80
2019-04-22T09:05:06.294Z,23.10
2019-04-22T09:07:31.493Z,23.30
2019-04-22T09:10:05.160Z,23.30
2019-04-22T09:12:51.778Z,23.30
2019-04-22T09:15:14.431Z,23.50
2019-04-22T09:17:40.308Z,23.50
2019-04-22T09:20:15.501Z,23.40
2019-04-22T09:22:47.083Z,23.70
2019-04-22T09:25:18.705Z,23.70
2019-04-22T09:27:52.088Z,24.00
2019-04-22T09:30:30.652Z,24.10
2019-04-22T09:33:11.105Z,24.00
2019-04-22T09:35:31.769Z,24.00
2019-04-22T09:38:12.698Z,24.10
2019-04-22T09:40:28.931Z,24.10
2019-04-22T09:43:03.226Z,24.30
2019-04-22T09:45:34.450Z,24.50
2019-04-22T09:48:08.679Z,24.50
2019-04-22T09:50:46.431Z,24.40
2019-04-22T09:53:14.865Z,24.50
2019-04-22T09:55:43.069Z,24.50
2019-04-22T09:58:16.276Z,24.50
2019-04-22T10:01:24.349Z,24.70
2019-04-22T10:03:56.461Z,24.60
2019-04-22T10:06:30.923Z,24.70
2019-04-22T10:09:12.692Z,24.70
2019-04-22T10:11:35.026Z,24.70
2019-04-22T10:14:01.106Z,24.70
2019-04-22T10:19:08.071Z,25.10
2019-04-22T10:24:09.049Z,25.30
2019-04-22T10:26:50.373Z,25.10
2019-04-22T10:31:46.589Z,25.10
2019-04-22T10:34:05.602Z,24.80
2019-04-22T10:36:25.608Z,24.90
2019-04-22T10:38:56.040Z,24.60
2019-04-22T10:41:26.567Z,24.70
2019-04-22T10:43:57.105Z,24.70
2019-04-22T10:46:28.329Z,24.60
2019-04-22T10:49:00.000Z,24.80
2019-04-22T10:51:31.136Z,24.50
2019-04-22T10:54:01.871Z,24.60
2019-04-22T10:56:32.697Z,24.40
2019-04-22T10:59:04.709Z,24.60
2019-04-22T11:01:38.402Z,24.30
2019-04-22T11:04:08.950Z,24.40
2019-04-22T11:06:50.335Z,24.40
2019-04-22T11:09:12.461Z,24.80
2019-04-22T11:11:51.094Z,24.90
2019-04-22T11:14:15.108Z,24.70
2019-04-22T11:16:45.639Z,24.60
2019-04-22T11:19:17.335Z,24.60
2019-04-22T11:21:59.936Z,24.70
2019-04-22T11:24:21.057Z,24.60
2019-04-22T11:26:52.764Z,24.80
2019-04-22T11:29:25.468Z,24.80
2019-04-22T11:31:56.636Z,24.70
2019-04-22T11:34:27.092Z,24.80
2019-04-22T11:36:58.877Z,25.00
2019-04-22T11:39:31.197Z,24.90
2019-04-22T11:42:09.903Z,24.90
2019-04-22T11:44:41.237Z,24.70
2019-04-22T11:47:11.890Z,24.70
2019-04-22T11:49:43.803Z,24.60
2019-04-22T11:52:16.424Z,24.50
2019-04-22T11:54:46.777Z,24.50
2019-04-22T11:57:17.334Z,24.30
2019-04-22T11:59:48.963Z,24.40
2019-04-22T12:02:21.962Z,24.50
2019-04-22T12:04:53.923Z,24.60
2019-04-22T12:07:24.571Z,24.50
2019-04-22T12:09:55.614Z,24.30
2019-04-22T12:12:27.718Z,24.40
2019-04-22T12:14:58.750Z,24.40
2019-04-22T12:17:29.854Z,24.40
2019-04-22T12:20:03.315Z,24.30
2019-04-22T12:22:33.987Z,24.20
2019-04-22T12:25:10.561Z,24.10
2019-04-22T12:27:41.305Z,24.20
2019-04-22T12:30:12.455Z,24.20
2019-04-22T12:32:43.591Z,24.20
2019-04-22T12:35:15.635Z,24.30
2019-04-22T12:37:52.911Z,24.40
2019-04-22T12:40:30.183Z,24.40
2019-04-22T12:42:53.227Z,24.50
2019-04-22T12:45:24.616Z,24.30
2019-04-22T12:47:56.219Z,24.40
2019-04-22T12:50:32.798Z,24.40
2019-04-22T12:53:03.666Z,24.20
2019-04-22T12:55:32.393Z,24.20
2019-04-22T12:58:03.023Z,24.20
2019-04-22T13:00:34.323Z,24.20
2019-04-22T13:03:05.262Z,24.20
2019-04-22T13:05:37.455Z,24.20
2019-04-22T13:08:09.578Z,24.30
2019-04-22T13:10:49.526Z,24.20
2019-04-22T13:13:13.222Z,24.30
2019-04-22T13:15:44.595Z,24.20
2019-04-22T13:18:26.153Z,24.30
2019-04-22T13:20:48.485Z,24.40
2019-04-22T13:23:19.881Z,24.40
2019-04-22T13:25:50.408Z,24.40
2019-04-22T13:28:21.098Z,24.40
2019-04-22T13:30:52.694Z,24.40
2019-04-22T13:33:23.422Z,24.40
2019-04-22T13:35:54.378Z,24.30
2019-04-22T13:38:26.896Z,24.30
2019-04-22T13:41:07.227Z,24.10
2019-04-22T13:43:31.113Z,24.20
2019-04-22T13:46:01.886Z,24.20
2019-04-22T13:48:53.324Z,24.20
2019-04-22T13:51:43.109Z,24.20
2019-04-22T13:54:36.854Z,24.20
2019-04-22T13:56:30.344Z,24.30
2019-04-22T13:58:52.477Z,24.30
2019-04-22T14:01:16.514Z,24.30
2019-04-22T14:04:02.714Z,24.30
2019-04-22T14:06:34.537Z,24.30
2019-04-22T14:09:07.577Z,24.20
2019-04-22T14:11:48.916Z,24.20
2019-04-22T14:14:10.950Z,24.30
2019-04-22T14:16:42.793Z,24.20
2019-04-22T14:19:14.033Z,24.10
2019-04-22T14:21:47.375Z,24.10
2019-04-22T14:24:17.820Z,24.10
2019-04-22T14:27:01.287Z,24.00
2019-04-22T14:29:21.920Z,24.00
2019-04-22T14:32:04.246Z,24.00
2019-04-22T14:34:26.412Z,24.00
2019-04-22T14:36:57.345Z,24.00
2019-04-22T14:39:28.068Z,23.90
2019-04-22T14:42:19.466Z,23.90
2019-04-22T14:45:18.931Z,23.90
2019-04-22T14:47:25.751Z,23.80
2019-04-22T14:49:58.929Z,23.80
2019-04-22T14:52:44.507Z,23.80
2019-04-22T14:54:51.643Z,23.80
2019-04-22T14:57:12.984Z,23.70
2019-04-22T14:59:43.987Z,23.70
2019-04-22T15:02:16.083Z,23.70
2019-04-22T15:04:47.984Z,23.70
2019-04-22T15:07:19.196Z,23.70
2019-04-22T15:09:50.258Z,23.70
2019-04-22T15:12:33.665Z,23.70
2019-04-22T15:14:53.455Z,23.80
2019-04-22T15:17:33.437Z,23.80
2019-04-22T15:20:21.978Z,23.80
2019-04-22T15:22:52.746Z,23.70
2019-04-22T15:25:24.185Z,23.60
2019-04-22T15:27:55.299Z,23.60
2019-04-22T15:30:25.782Z,23.60
2019-04-22T15:32:57.211Z,23.50
2019-04-22T15:35:29.100Z,23.50
2019-04-22T15:37:59.558Z,23.50
2019-04-22T15:40:30.974Z,23.40
2019-04-22T15:43:02.632Z,23.30
2019-04-22T15:45:34.916Z,23.30
2019-04-22T15:48:18.805Z,23.30
2019-04-22T15:50:50.648Z,23.30
2019-04-22T15:53:22.060Z,23.20
2019-04-22T15:55:52.686Z,23.20
2019-04-22T15:58:23.828Z,23.20
2019-04-22T16:01:08.328Z,23.10
2019-04-22T16:03:26.896Z,23.10
2019-04-22T16:05:57.634Z,23.10
2019-04-22T16:08:29.349Z,23.00
2019-04-22T16:11:00.234Z,22.90
2019-04-22T16:13:34.759Z,22.90
2019-04-22T16:16:04.691Z,22.90
2019-04-22T16:18:36.146Z,22.90
2019-04-22T16:21:07.254Z,22.90
2019-04-22T16:23:44.688Z,22.80
2019-04-22T16:26:22.082Z,22.80
2019-04-22T16:28:55.633Z,22.80
2019-04-22T16:31:25.090Z,22.80
2019-04-22T16:33:56.303Z,22.80
2019-04-22T16:36:27.011Z,22.70
2019-04-22T16:38:57.611Z,22.70
2019-04-22T16:41:28.690Z,22.70
2019-04-22T16:44:00.663Z,22.70
2019-04-22T16:46:31.877Z,22.60
2019-04-22T16:49:03.414Z,22.60
2019-04-22T16:51:33.917Z,22.50
2019-04-22T16:54:06.361Z,22.40
2019-04-22T16:56:37.268Z,22.40
2019-04-22T16:59:08.806Z,22.30
2019-04-22T17:02:02.152Z,22.30
2019-04-22T17:04:43.018Z,22.20
2019-04-22T17:07:16.146Z,22.20
2019-04-22T17:09:47.881Z,22.10
2019-04-22T17:12:19.598Z,22.10
2019-04-22T17:14:56.291Z,22.00
2019-04-22T17:17:22.404Z,21.90
2019-04-22T17:19:53.254Z,21.80
2019-04-22T17:22:23.950Z,21.70
2019-04-22T17:24:54.456Z,21.70
2019-04-22T17:27:26.476Z,21.60
2019-04-22T17:29:57.059Z,21.50
2019-04-22T17:32:28.795Z,21.50
2019-04-22T17:34:59.440Z,21.40
2019-04-22T17:37:35.166Z,21.40
2019-04-22T17:42:55.441Z,21.20
2019-04-22T17:46:07.197Z,21.20
2019-04-22T17:49:15.354Z,21.10
2019-04-22T17:52:09.070Z,21.10
2019-04-22T17:54:38.393Z,20.90
2019-04-22T17:57:09.829Z,20.90
2019-04-22T17:59:41.863Z,20.80
2019-04-22T18:02:13.365Z,20.70
2019-04-22T18:04:35.257Z,20.60
2019-04-22T18:07:27.439Z,20.60
2019-04-22T18:10:16.166Z,20.50
2019-04-22T18:12:33.792Z,20.50
2019-04-22T18:14:59.669Z,20.40
2019-04-22T18:17:29.115Z,20.30
2019-04-22T18:19:54.582Z,20.30
2019-04-22T18:22:21.943Z,20.20
2019-04-22T18:24:56.795Z,20.20
2019-04-22T18:30:07.864Z,20.00
2019-04-22T18:32:38.046Z,19.90
2019-04-22T18:35:11.491Z,19.90
2019-04-22T18:37:42.457Z,19.80
2019-04-22T18:40:15.006Z,19.70
2019-04-22T18:42:52.533Z,19.70
2019-04-22T18:45:37.464Z,19.60
2019-04-22T18:47:45.451Z,19.50
2019-04-22T18:50:34.112Z,19.50
2019-04-22T18:53:18.910Z,19.40
2019-04-22T18:56:03.880Z,19.40
2019-04-22T18:58:33.759Z,19.40
2019-04-22T19:00:48.873Z,19.30
2019-04-22T19:03:26.292Z,19.20
2019-04-22T19:06:25.930Z,19.10
2019-04-22T19:08:55.431Z,19.00
2019-04-22T19:11:17.374Z,18.90
2019-04-22T19:14:03.288Z,18.90
2019-04-22T19:16:32.077Z,18.90
2019-04-22T19:19:18.541Z,18.80
2019-04-22T19:21:25.599Z,18.80
2019-04-22T19:23:54.028Z,18.70
2019-04-22T19:26:42.544Z,18.60
2019-04-22T19:29:00.310Z,18.60
2019-04-22T19:31:34.710Z,18.50
2019-04-22T19:34:09.422Z,18.50
2019-04-22T19:36:40.823Z,18.40
2019-04-22T19:39:07.546Z,18.30
2019-04-22T19:41:45.448Z,18.30
2019-04-22T19:44:14.270Z,18.20
2019-04-22T19:46:53.126Z,18.10
2019-04-22T19:49:24.169Z,18.10
2019-04-22T19:51:58.999Z,18.00
2019-04-22T19:54:26.123Z,18.00
2019-04-22T19:56:48.562Z,17.90
2019-04-22T19:59:25.313Z,17.80
2019-04-22T20:02:07.374Z,17.80
2019-04-22T20:05:05.995Z,17.70
2019-04-22T20:07:40.605Z,17.70
2019-04-22T20:10:19.063Z,17.60
2019-04-22T20:12:43.658Z,17.60
2019-04-22T20:15:15.633Z,17.60
2019-04-22T20:18:11.678Z,17.50
2019-04-22T20:20:28.831Z,17.50
2019-04-22T20:22:52.405Z,17.50
2019-04-22T20:25:16.581Z,17.40
2019-04-22T20:28:01.311Z,17.40
2019-04-22T20:30:32.874Z,17.30
2019-04-22T20:32:59.361Z,17.20
2019-04-22T20:35:39.090Z,17.20
2019-04-22T20:38:09.296Z,17.10
2019-04-22T20:40:40.003Z,17.10
2019-04-22T20:43:21.968Z,17.10
2019-04-22T20:45:46.468Z,17.00
2019-04-22T20:48:07.901Z,17.10
2019-04-22T20:50:54.630Z,17.00
2019-04-22T20:53:25.824Z,17.00
2019-04-22T20:55:55.228Z,16.90
2019-04-22T20:58:29.771Z,16.90
2019-04-22T21:00:53.047Z,16.80
2019-04-22T21:03:22.372Z,16.80
2019-04-22T21:05:54.089Z,16.70
2019-04-22T21:08:38.990Z,16.60
2019-04-22T21:11:04.766Z,16.60
2019-04-22T21:13:31.774Z,16.50
2019-04-22T21:16:15.289Z,16.50
2019-04-22T21:18:39.037Z,16.50
2019-04-22T21:21:23.970Z,16.40
2019-04-22T21:23:42.111Z,16.40
2019-04-22T21:26:19.534Z,16.30
2019-04-22T21:28:47.440Z,16.20
2019-04-22T21:31:29.553Z,16.20
2019-04-22T21:34:02.119Z,16.10
2019-04-22T21:38:58.917Z,16.00
2019-04-22T21:41:30.671Z,16.00
2019-04-22T21:44:04.203Z,15.90
2019-04-22T21:46:43.730Z,15.90
2019-04-22T21:49:12.900Z,15.80
2019-04-22T21:51:43.498Z,15.80
2019-04-22T21:57:07.531Z,15.70
2019-04-22T21:59:32.080Z,15.70
2019-04-22T22:02:12.324Z,15.60
2019-04-22T22:04:38.404Z,15.60
2019-04-22T22:07:03.169Z,15.50
2019-04-22T22:09:48.997Z,15.50
2019-04-22T22:12:17.112Z,15.50
2019-04-22T22:14:50.115Z,15.40
2019-04-22T22:17:22.670Z,15.40
2019-04-22T22:19:52.916Z,15.40
2019-04-22T22:22:42.107Z,15.30
2019-04-22T22:25:01.437Z,15.20
2019-04-22T22:27:34.236Z,15.10
2019-04-22T22:30:18.781Z,15.10
2019-04-22T22:32:33.767Z,15.10
2019-04-22T22:35:10.123Z,15.00
2019-04-22T22:37:28.414Z,14.90
2019-04-22T22:40:00.880Z,14.90
2019-04-22T22:42:31.309Z,14.80
2019-04-22T22:45:08.891Z,14.80
2019-04-22T22:47:45.804Z,14.80
2019-04-22T22:50:23.294Z,14.80
2019-04-22T22:53:11.223Z,14.80
2019-04-22T22:55:29.638Z,14.70
2019-04-22T22:58:06.253Z,14.70
2019-04-22T23:00:33.898Z,14.60
2019-04-22T23:03:38.077Z,14.60
2019-04-22T23:05:50.423Z,14.50
2019-04-22T23:08:20.414Z,14.40
2019-04-22T23:11:05.164Z,14.40
2019-04-22T23:13:25.816Z,14.40
2019-04-22T23:15:50.924Z,14.40
2019-04-22T23:18:07.827Z,14.30
2019-04-22T23:20:43.958Z,14.30
2019-04-22T23:23:33.400Z,14.30
2019-04-22T23:26:10.547Z,14.20
2019-04-22T23:28:43.070Z,14.20
2019-04-22T23:31:29.496Z,14.20
2019-04-22T23:34:18.492Z,14.10
2019-04-22T23:37:19.122Z,14.10
2019-04-22T23:42:27.381Z,14.00
2019-04-22T23:45:03.835Z,13.90
2019-04-22T23:47:26.536Z,13.90
2019-04-22T23:50:01.404Z,13.80
2019-04-22T23:52:43.550Z,13.80
2019-04-22T23:55:17.769Z,13.70
2019-04-22T23:57:55.346Z,13.70
